Depesze METAR z lotnisk oddalonych od Rybnika do 200 kilometrów

LKMT - Ostrava/Mosnov, Czech Republic
Distance from station: SSW 55km
Aktualizacja: Tue, 15/10/2019 05:30 CEST
Clear
Clear
 Wind from ENE
Wiatr: ENE 6 km/h
Temperatura: 10°C
Punkt rosy: 10°C
Wilgotnosc: 100%
Cisnienie: 1014 hPa
Kondycja: Clear
Widocznosc: greater than 10 km
2019/10/15 03:30 LKMT 150330Z 06003KT 010V100 CAVOK 10/10 Q1014 NOSIG
EPKT - Katowice/Pyrzowi, Poland
Distance from station: NE 58km
Aktualizacja: Tue, 15/10/2019 05:30 CEST
Patches of fog, Mist, Partly cloudy
Patches of fog, Mist, Partly cloudy
 Wind from ENE
Wiatr: ENE 4 km/h
Temperatura: 9°C
Punkt rosy: 8°C
Wilgotnosc: 94%
Cisnienie: 1014 hPa
Kondycja: Patches of fog, Mist
Chmury: Partly Cloudy
Widocznosc: 4 km
2019/10/15 03:30 EPKT 150330Z 07002KT 4300 0300N BCFG BR NSC 09/08 Q1014
 
EPKK - Krakow/Balice, Poland
Distance from station: E 91km
Aktualizacja: Tue, 15/10/2019 05:30 CEST
Partly Cloudy
Partly Cloudy
 Wind from varies
Wiatr: varies 4 km/h
Temperatura: 7°C
Punkt rosy: 7°C
Wilgotnosc: 100%
Cisnienie: 1014 hPa
Chmury: Partly Cloudy
Widocznosc: 6 km
2019/10/15 03:30 EPKK 150330Z VRB02KT 6000 NSC 07/07 Q1014
LZZI - Zilina, Slovakia
Distance from station: S 95km
Aktualizacja: Tue, 15/10/2019 05:30 CEST
Fog, Overcast
Fog, Overcast
 Wind from E
Wiatr: E 4 km/h
Temperatura: 9°C
Punkt rosy: 9°C
Wilgotnosc: 100%
Cisnienie: 1016 hPa
Kondycja: Fog
Chmury: Overcast
Widocznosc: 0 km
Chmury-opis: Overcast 30 m
2019/10/15 03:30 LZZI 150330Z 08002KT 0100 R06/0250N FG OVC001 09/09 Q1016
 
LKKU - Kunovice, Czech Republic
Distance from station: SW 139km
Aktualizacja: Mon, 14/10/2019 16:00 CEST
NOT Current
Clear
Clear
 Wind from S
Wiatr: S 19 km/h
Temperatura: 23°C
Punkt rosy: 12°C
Wilgotnosc: 50%
Cisnienie: 1018 hPa
Kondycja: Clear
Widocznosc: greater than 10 km
2019/10/14 14:00 LKKU 141400Z 18010KT CAVOK 23/12 Q1018
EPWR - Wroclaw/Strachow, Poland
Distance from station: NW 163km
Aktualizacja: Tue, 15/10/2019 05:30 CEST
Clear
Clear
 Wind from SE
Wiatr: SE 15 km/h
Temperatura: 13°C
Punkt rosy: 11°C
Wilgotnosc: 88%
Cisnienie: 1012 hPa
Kondycja: Clear
Widocznosc: greater than 10 km
2019/10/15 03:30 EPWR 150330Z 13008KT CAVOK 13/11 Q1012
 
LZSL - Sliac, Slovakia
Distance from station: SSE 168km
Aktualizacja: Tue, 15/10/2019 05:30 CEST
Fog, Mostly cloudy
Fog, Mostly cloudy
 Wind from S
Wiatr: S 2 km/h
Temperatura: 7°C
Punkt rosy: 6°C
Wilgotnosc: 93%
Cisnienie: 1018 hPa
Kondycja: Fog
Chmury: Mostly Cloudy
Widocznosc: 0 km
Chmury-opis: Mostly Cloudy 30 m
2019/10/15 03:30 LZSL 150330Z 17001KT 0200 R36/0375N FG BKN001 07/06 Q1018
LZTT - Poprad/Tatry, Slovakia
Distance from station: SE 168km
Aktualizacja: Tue, 15/10/2019 05:30 CEST
Clear
Clear
 Wind from W
Wiatr: W 9 km/h
Temperatura: 7°C
Wind Chill: 6°C
Punkt rosy: 6°C
Wilgotnosc: 93%
Cisnienie: 1018 hPa
Kondycja: Clear
Widocznosc: greater than 10 km
2019/10/15 03:30 LZTT 150330Z 26005KT CAVOK 07/06 Q1018
 
LKTB - Brno/Turany, Czech Republic
Distance from station: SW 170km
Aktualizacja: Tue, 15/10/2019 05:30 CEST
Clear
Clear
 Wind from ESE
Wiatr: ESE 17 km/h
Temperatura: 14°C
Punkt rosy: 11°C
Wilgotnosc: 82%
Cisnienie: 1013 hPa
Kondycja: Clear
Widocznosc: greater than 10 km
2019/10/15 03:30 LKTB 150330Z 11009KT CAVOK 14/11 Q1013 NOSIG
LZPP - Piestany, Slovakia
Distance from station: SSW 171km
Aktualizacja: Tue, 15/10/2019 05:30 CEST
Overcast
Overcast
 Wind from SE
Wiatr: SE 20 km/h
Temperatura: 17°C
Punkt rosy: 10°C
Wilgotnosc: 64%
Cisnienie: 1015 hPa
Chmury: Overcast
Widocznosc: 10 km
Chmury-opis: Overcast 6401 m
2019/10/15 03:30 LZPP 150330Z AUTO 13011KT 110V170 9999 OVC210/// 17/10 Q1015
 
EPLL - Lodz/Lublinek, Poland
Distance from station: NNE 191km
Aktualizacja: Tue, 15/10/2019 05:30 CEST
Partly Cloudy
Partly Cloudy
 Wind from E
Wiatr: E 6 km/h
Temperatura: 12°C
Punkt rosy: 11°C
Wilgotnosc: 94%
Cisnienie: 1014 hPa
Chmury: Partly Cloudy
Widocznosc: 7 km
2019/10/15 03:30 EPLL 150330Z 09003KT 040V130 7000 NSC 12/11 Q1014
LKPD - Pardubice, Czech Republic
Distance from station: W 200km
Aktualizacja: Tue, 15/10/2019 04:00 CEST
NOT Current
Clear
Clear
 Wind from varies
Wiatr: varies 4 km/h
Temperatura: 11°C
Punkt rosy: 10°C
Wilgotnosc: 94%
Cisnienie: 1012 hPa
Kondycja: Clear
Widocznosc: greater than 10 km
2019/10/15 02:00 LKPD 150200Z VRB02KT CAVOK 11/10 Q1012 RMK BLU

Metar display script from Saratoga-Weather.org